Time;durP1;ratioP1;P1;durP2;ratioP2;P2;SDS_P1;SDS_P2;PMS_P1;PMS_P2;Temp;Humidity;BMP_temperature;BMP_pressure;BME280_temperature;BME280_humidity;BME280_pressure;Samples;Min_cycle;Max_cycle;Signal;HPM_P1;HPM_P2
2022/10/04 00:01:30;;;;;;;20.23;11.52;;;12.20;99.90;;;;;;5060030;28;20057;-58
2022/10/04 00:04:10;;;;;;;17.75;10.35;;;12.20;99.90;;;;;;5061726;28;20045;-58
2022/10/04 00:06:46;;;;;;;17.13;10.45;;;12.20;99.90;;;;;;5061698;28;20049;-58
2022/10/04 00:09:22;;;;;;;19.77;10.27;;;12.10;99.90;;;;;;5059961;28;20095;-59
2022/10/04 00:11:48;;;;;;;17.77;10.57;;;12.30;99.90;;;;;;5062123;28;20063;-58
2022/10/04 00:14:29;;;;;;;19.80;10.55;;;12.20;99.90;;;;;;5061531;28;20455;-56
2022/10/04 00:16:58;;;;;;;21.63;11.63;;;12.20;99.90;;;;;;5061278;28;20060;-59
2022/10/04 00:19:37;;;;;;;21.20;10.90;;;12.20;99.90;;;;;;5060243;28;20081;-59
2022/10/04 00:22:09;;;;;;;21.15;11.23;;;12.10;99.90;;;;;;5061195;28;20040;-58
2022/10/04 00:24:36;;;;;;;20.30;11.10;;;12.40;99.90;;;;;;5061774;28;20064;-55
2022/10/04 00:27:21;;;;;;;19.58;10.52;;;12.20;99.90;;;;;;5061028;28;20041;-57
2022/10/04 00:30:15;;;;;;;19.27;10.65;;;12.10;99.90;;;;;;5060914;28;20044;-59
2022/10/04 00:32:41;;;;;;;16.92;10.50;;;12.30;99.90;;;;;;5059346;28;20107;-56
2022/10/04 00:35:25;;;;;;;18.75;10.95;;;12.20;99.90;;;;;;5060718;28;20037;-56
2022/10/04 00:38:00;;;;;;;19.42;10.82;;;12.20;99.90;;;;;;5061574;28;20044;-56
2022/10/04 00:40:45;;;;;;;20.65;11.10;;;12.10;99.90;;;;;;5071795;28;20048;-56
2022/10/04 00:43:18;;;;;;;17.67;11.00;;;12.10;99.90;;;;;;5080347;28;20091;-56
2022/10/04 00:46:04;;;;;;;22.15;12.27;;;12.00;99.90;;;;;;5081482;28;20048;-56
2022/10/04 00:48:59;;;;;;;19.60;11.15;;;12.00;99.90;;;;;;5079717;28;20071;-55
2022/10/04 00:51:36;;;;;;;16.33;10.57;;;12.00;99.90;;;;;;5079922;28;20379;-56
2022/10/04 00:54:11;;;;;;;22.98;11.95;;;12.20;99.90;;;;;;5081211;28;20044;-55
2022/10/04 00:56:49;;;;;;;21.95;11.93;;;12.00;99.90;;;;;;5079263;28;20072;-56
2022/10/04 00:59:21;;;;;;;18.27;11.35;;;11.90;99.90;;;;;;5074389;28;20048;-56
2022/10/04 01:01:52;;;;;;;16.45;11.68;;;11.90;99.90;;;;;;5060891;28;20060;-55
2022/10/04 01:04:59;;;;;;;24.90;12.98;;;11.80;99.90;;;;;;5060107;28;20045;-57
2022/10/04 01:07:47;;;;;;;26.10;12.38;;;11.90;99.90;;;;;;5060647;28;20115;-57
2022/10/04 01:10:30;;;;;;;19.95;12.25;;;12.00;99.90;;;;;;5060339;28;20562;-55
2022/10/04 01:13:16;;;;;;;21.88;12.10;;;11.90;99.90;;;;;;5060259;28;20055;-57
2022/10/04 01:16:08;;;;;;;23.55;11.70;;;12.00;99.90;;;;;;5060919;28;20056;-57
2022/10/04 01:18:35;;;;;;;19.83;11.95;;;11.90;99.90;;;;;;5059912;28;20083;-56
2022/10/04 01:21:15;;;;;;;22.92;12.50;;;11.90;99.90;;;;;;5059964;28;20505;-57
2022/10/04 01:23:45;;;;;;;25.27;13.15;;;11.90;99.90;;;;;;5060766;28;20072;-56
2022/10/04 01:26:28;;;;;;;25.50;12.55;;;11.80;99.90;;;;;;5059797;28;20043;-56
2022/10/04 01:29:14;;;;;;;20.35;11.70;;;12.00;99.90;;;;;;5060679;28;20075;-57
2022/10/04 01:31:46;;;;;;;21.65;11.48;;;11.90;99.90;;;;;;5058546;28;20059;-56
2022/10/04 01:34:21;;;;;;;23.38;12.55;;;11.90;99.90;;;;;;5059237;28;20071;-57
2022/10/04 01:36:48;;;;;;;25.88;11.88;;;12.10;99.90;;;;;;5060497;28;20029;-57
2022/10/04 01:39:16;;;;;;;25.27;12.70;;;12.00;99.90;;;;;;5060419;28;20116;-56
2022/10/04 01:41:53;;;;;;;22.48;11.93;;;11.90;99.90;;;;;;5080360;28;20048;-57
2022/10/04 01:44:38;;;;;;;22.83;11.82;;;11.80;99.90;;;;;;5079436;28;20044;-57
2022/10/04 01:47:12;;;;;;;21.38;11.73;;;11.80;99.90;;;;;;5078844;28;20056;-57
2022/10/04 01:49:40;;;;;;;21.23;12.48;;;12.00;99.90;;;;;;5080163;28;20040;-54
2022/10/04 01:52:32;;;;;;;21.13;11.98;;;11.80;99.90;;;;;;5079432;28;20040;-56
2022/10/04 01:55:01;;;;;;;;;;;11.80;99.90;;;;;;5075574;28;20163;-57
2022/10/04 01:57:38;;;;;;;25.52;12.20;;;11.80;99.90;;;;;;5079834;28;19985;-56
2022/10/04 02:00:11;;;;;;;25.60;12.18;;;11.90;99.90;;;;;;5065558;28;20061;-57
2022/10/04 02:02:42;;;;;;;19.23;10.40;;;11.90;99.90;;;;;;5059681;28;20071;-57
2022/10/04 02:05:12;;;;;;;24.25;11.13;;;11.90;99.90;;;;;;5059174;28;20080;-57
2022/10/04 02:07:40;;;;;;;22.30;11.98;;;11.90;99.90;;;;;;5059828;28;20056;-56
2022/10/04 02:10:14;;;;;;;20.52;11.32;;;11.70;99.90;;;;;;5059458;28;20096;-57
2022/10/04 02:12:45;;;;;;;21.08;11.23;;;11.70;99.90;;;;;;5058976;28;20040;-57
2022/10/04 02:15:12;;;;;;;23.50;11.80;;;11.90;99.90;;;;;;5059792;28;20115;-56
2022/10/04 02:17:41;;;;;;;18.33;10.82;;;11.80;99.90;;;;;;5059087;28;20045;-57
2022/10/04 02:20:17;;;;;;;17.83;10.88;;;11.60;99.90;;;;;;5059568;28;20531;-57
2022/10/04 02:22:45;;;;;;;17.95;10.52;;;11.80;99.90;;;;;;5058208;28;20053;-57
2022/10/04 02:25:13;;;;;;;20.17;11.38;;;11.70;99.90;;;;;;5059053;28;20059;-57
2022/10/04 02:27:39;;;;;;;19.50;10.35;;;11.80;99.90;;;;;;5059594;28;20045;-56
2022/10/04 02:30:08;;;;;;;24.17;11.02;;;11.80;99.90;;;;;;5058635;28;20059;-57
2022/10/04 02:35:20;;;;;;;21.85;10.73;;;11.80;99.90;;;;;;5058726;28;20056;-57
2022/10/04 02:37:52;;;;;;;21.25;11.75;;;11.70;99.90;;;;;;5059220;28;20233;-57
2022/10/04 02:40:25;;;;;;;20.88;11.68;;;11.80;99.90;;;;;;5068496;28;20083;-56
2022/10/04 02:43:16;;;;;;;20.67;10.80;;;11.60;99.90;;;;;;5077344;28;20045;-57
2022/10/04 02:45:55;;;;;;;20.98;10.35;;;11.80;99.90;;;;;;5079245;28;20048;-57
2022/10/04 02:48:29;;;;;;;19.88;10.60;;;11.60;99.90;;;;;;5078573;28;20638;-56
2022/10/04 02:51:01;;;;;;;19.73;10.52;;;11.70;99.90;;;;;;5078967;28;20115;-56
2022/10/04 02:53:56;;;;;;;18.63;10.55;;;11.50;99.90;;;;;;5079272;28;20036;-56
2022/10/04 02:56:24;;;;;;;22.75;11.07;;;11.70;99.90;;;;;;5078154;28;20032;-57
2022/10/04 02:58:50;;;;;;;24.05;11.45;;;11.50;99.90;;;;;;5076452;28;20053;-56
2022/10/04 03:01:27;;;;;;;21.48;10.93;;;11.40;99.90;;;;;;5061349;28;20175;-57
2022/10/04 03:03:55;;;;;;;24.35;11.07;;;11.50;99.90;;;;;;5062811;28;20049;-57
2022/10/04 03:06:25;;;;;;;20.23;10.80;;;11.40;99.90;;;;;;5063090;28;20079;-57
2022/10/04 03:09:03;;;;;;;19.92;10.85;;;11.40;99.90;;;;;;5062374;28;20064;-57
2022/10/04 03:11:33;;;;;;;21.30;10.27;;;11.40;99.90;;;;;;5061645;28;20052;-57
2022/10/04 03:14:01;;;;;;;21.23;11.02;;;11.40;99.90;;;;;;5062533;28;20059;-57
2022/10/04 03:16:34;;;;;;;21.33;12.32;;;11.40;99.90;;;;;;5060967;28;20102;-57
2022/10/04 03:19:00;;;;;;;21.45;10.93;;;11.50;99.90;;;;;;5071370;28;20043;-57
2022/10/04 03:21:26;;;;;;;22.98;11.20;;;11.40;99.90;;;;;;5081550;28;20040;-56
2022/10/04 03:23:53;;;;;;;19.27;10.95;;;11.20;99.90;;;;;;5082622;28;20557;-57
2022/10/04 03:26:18;;;;;;;18.30;10.50;;;11.20;99.90;;;;;;5080309;28;20097;-57
2022/10/04 03:28:45;;;;;;;23.70;11.13;;;11.30;99.90;;;;;;5083039;28;20080;-57
2022/10/04 03:31:12;;;;;;;19.58;10.50;;;11.40;99.90;;;;;;5080894;28;20052;-57
2022/10/04 03:33:39;;;;;;;20.73;10.35;;;11.20;99.90;;;;;;5082545;28;20096;-57
2022/10/04 03:36:05;;;;;;;21.92;11.40;;;11.30;99.90;;;;;;5082467;28;20048;-56
2022/10/04 03:38:34;;;;;;;20.92;10.82;;;11.30;99.90;;;;;;5081896;28;20114;-57
2022/10/04 03:41:00;;;;;;;19.50;10.65;;;11.40;99.90;;;;;;5082204;28;20049;-57
2022/10/04 03:43:32;;;;;;;16.65;11.05;;;11.40;99.90;;;;;;5080611;28;20040;-56
2022/10/04 03:46:00;;;;;;;19.13;11.25;;;11.40;99.90;;;;;;5082450;28;20041;-57
2022/10/04 03:48:34;;;;;;;18.10;10.70;;;11.40;99.90;;;;;;5082162;28;20037;-57
2022/10/04 03:51:05;;;;;;;20.95;11.52;;;11.30;99.90;;;;;;5082043;28;20044;-57
2022/10/04 03:53:41;;;;;;;22.17;11.40;;;11.30;99.90;;;;;;5081294;28;20114;-56
2022/10/04 03:56:25;;;;;;;19.35;10.30;;;11.40;99.90;;;;;;5081538;28;20044;-57
2022/10/04 03:58:52;;;;;;;20.95;10.50;;;11.20;99.90;;;;;;5078938;28;20045;-57
2022/10/04 04:01:39;;;;;;;18.88;10.57;;;11.30;99.90;;;;;;5061439;28;20061;-55
2022/10/04 04:04:35;;;;;;;18.80;10.25;;;11.20;99.90;;;;;;5061426;28;20041;-57
2022/10/04 04:07:05;;;;;;;17.38;10.88;;;11.30;99.90;;;;;;5062033;28;20049;-56
2022/10/04 04:09:55;;;;;;;20.15;10.85;;;11.20;99.90;;;;;;5061174;28;20570;-56
2022/10/04 04:12:42;;;;;;;23.92;11.38;;;11.20;99.90;;;;;;5061262;28;20127;-57
2022/10/04 04:15:13;;;;;;;21.80;10.90;;;11.20;99.90;;;;;;5060697;28;20056;-56
2022/10/04 04:17:45;;;;;;;20.55;11.60;;;11.20;99.90;;;;;;5061351;28;20072;-57
2022/10/04 04:20:22;;;;;;;;;;;11.20;99.90;;;;;;5062237;28;20117;-57
2022/10/04 04:22:58;;;;;;;22.05;10.93;;;11.00;99.90;;;;;;5061489;28;19921;-57
2022/10/04 04:25:25;;;;;;;19.13;11.60;;;11.00;99.90;;;;;;5061193;28;20091;-57
2022/10/04 04:27:55;;;;;;;23.65;11.02;;;11.00;99.90;;;;;;5060327;28;20578;-55
2022/10/04 04:30:20;;;;;;;18.80;11.23;;;11.00;99.90;;;;;;5060997;28;20041;-57
2022/10/04 04:32:53;;;;;;;18.00;11.75;;;11.00;99.90;;;;;;5061816;28;20041;-57
2022/10/04 04:35:28;;;;;;;20.35;10.98;;;10.90;99.90;;;;;;5060916;28;20075;-57
2022/10/04 04:38:13;;;;;;;22.33;11.05;;;10.90;99.90;;;;;;5061412;28;20100;-57
2022/10/04 04:40:39;;;;;;;23.42;10.65;;;11.00;99.90;;;;;;5074150;28;20044;-56
2022/10/04 04:43:05;;;;;;;21.08;11.20;;;10.90;99.90;;;;;;5080753;28;20033;-57
2022/10/04 04:45:32;;;;;;;19.95;10.55;;;10.90;99.90;;;;;;5081306;28;20060;-56
2022/10/04 04:48:00;;;;;;;17.83;10.50;;;10.90;99.90;;;;;;5080601;28;20066;-56
2022/10/04 04:50:35;;;;;;;19.52;11.48;;;11.10;99.90;;;;;;5081415;28;20044;-57
2022/10/04 04:53:25;;;;;;;21.10;11.43;;;10.90;99.90;;;;;;5081159;28;20044;-56
2022/10/04 04:55:58;;;;;;;17.88;10.55;;;10.90;99.90;;;;;;5080138;28;21156;-57
2022/10/04 04:58:31;;;;;;;20.50;11.93;;;11.00;99.90;;;;;;5081030;28;20052;-57
2022/10/04 05:01:12;;;;;;;22.55;11.38;;;10.80;99.90;;;;;;5060332;28;20044;-55
2022/10/04 05:03:37;;;;;;;22.48;11.07;;;10.90;99.90;;;;;;5060832;28;20059;-57
2022/10/04 05:06:03;;;;;;;22.40;11.60;;;10.80;99.90;;;;;;5060879;28;20239;-56
2022/10/04 05:08:34;;;;;;;19.02;10.60;;;10.80;99.90;;;;;;5058720;28;20045;-57
2022/10/04 05:11:08;;;;;;;20.80;10.80;;;10.90;99.90;;;;;;5075492;28;20044;-56
2022/10/04 05:13:44;;;;;;;21.13;11.02;;;10.80;99.90;;;;;;5079971;28;20052;-57
2022/10/04 05:16:21;;;;;;;17.73;10.63;;;10.80;99.90;;;;;;5080731;28;20097;-57
2022/10/04 05:18:53;;;;;;;19.67;12.70;;;10.90;99.90;;;;;;5080642;28;20036;-56
2022/10/04 05:21:29;;;;;;;21.42;12.32;;;10.80;99.90;;;;;;5079810;28;20044;-57
2022/10/04 05:23:57;;;;;;;21.60;11.32;;;10.80;99.90;;;;;;5079915;28;20042;-57
2022/10/04 05:26:28;;;;;;;21.80;11.90;;;10.80;99.90;;;;;;5080125;28;20040;-56
2022/10/04 05:29:05;;;;;;;24.42;12.32;;;10.80;99.90;;;;;;5079383;28;20048;-57
2022/10/04 05:31:45;;;;;;;23.75;12.18;;;10.70;99.90;;;;;;5080343;28;20196;-57
2022/10/04 05:34:22;;;;;;;20.30;12.45;;;10.70;99.90;;;;;;5079267;28;20040;-57
2022/10/04 05:37:19;;;;;;;21.45;12.27;;;10.70;99.90;;;;;;5080592;28;20048;-56
2022/10/04 05:40:22;;;;;;;23.58;12.45;;;10.80;99.90;;;;;;5075171;28;20068;-56
2022/10/04 05:42:48;;;;;;;22.33;11.70;;;10.70;99.90;;;;;;5052543;28;20068;-57
2022/10/04 05:45:22;;;;;;;21.75;12.10;;;10.50;99.90;;;;;;5072177;28;20463;-57
2022/10/04 05:47:53;;;;;;;21.00;13.13;;;10.60;99.90;;;;;;5075805;28;20052;-57
2022/10/04 05:50:21;;;;;;;22.48;13.95;;;10.50;99.90;;;;;;5076249;28;20417;-58
2022/10/04 05:52:50;;;;;;;22.80;13.38;;;10.60;99.90;;;;;;5075545;28;20135;-56
2022/10/04 05:55:36;;;;;;;19.77;12.80;;;10.40;99.90;;;;;;5075910;28;20494;-57
2022/10/04 05:58:33;;;;;;;22.15;13.85;;;10.60;99.90;;;;;;5075166;28;20068;-57
2022/10/04 06:01:50;;;;;;;23.25;13.88;;;10.50;99.90;;;;;;5055195;28;20052;-57
2022/10/04 06:04:32;;;;;;;22.10;14.18;;;10.50;99.90;;;;;;5042583;28;20057;-57
2022/10/04 06:07:21;;;;;;;26.02;13.90;;;10.60;99.90;;;;;;5056095;28;20298;-58
2022/10/04 06:09:58;;;;;;;23.20;13.65;;;10.50;99.90;;;;;;5055422;28;20045;-57
2022/10/04 06:13:01;;;;;;;25.88;14.75;;;10.50;99.90;;;;;;5055433;28;20053;-58
2022/10/04 06:15:30;;;;;;;24.25;13.70;;;10.20;99.90;;;;;;5054823;28;20078;-58
2022/10/04 06:18:10;;;;;;;19.23;12.70;;;10.40;99.90;;;;;;5052779;28;20048;-58
2022/10/04 06:21:13;;;;;;;23.35;14.23;;;10.60;99.90;;;;;;5063993;28;20048;-57
2022/10/04 06:24:17;;;;;;;22.08;13.27;;;10.60;99.90;;;;;;5074952;28;20665;-58
2022/10/04 06:26:53;;;;;;;22.73;14.77;;;10.50;99.90;;;;;;5051290;28;20110;-56
2022/10/04 06:29:25;;;;;;;23.45;14.02;;;10.50;99.90;;;;;;5074940;28;20105;-58
2022/10/04 06:32:14;;;;;;;20.90;15.25;;;10.50;99.90;;;;;;5075534;28;20052;-57
2022/10/04 06:35:04;;;;;;;25.88;14.05;;;10.70;99.90;;;;;;5073484;28;20052;-58
2022/10/04 06:37:45;;;;;;;23.08;14.65;;;10.70;99.90;;;;;;5075057;28;20105;-57
2022/10/04 06:40:48;;;;;;;19.45;13.63;;;10.80;99.90;;;;;;5073662;28;20048;-57
2022/10/04 06:43:32;;;;;;;21.60;13.38;;;11.00;99.90;;;;;;5071071;28;20088;-58
2022/10/04 06:46:07;;;;;;;19.38;13.38;;;10.90;99.90;;;;;;5075207;28;20066;-58
2022/10/04 06:48:55;;;;;;;22.10;14.35;;;11.10;99.90;;;;;;5074843;28;20053;-57
2022/10/04 06:51:34;;;;;;;23.45;14.48;;;11.10;99.90;;;;;;5072639;28;20215;-57
2022/10/04 06:54:11;;;;;;;23.25;13.13;;;11.30;99.90;;;;;;5073952;28;20123;-57
2022/10/04 06:56:57;;;;;;;21.95;14.68;;;11.20;99.90;;;;;;5073612;28;20127;-58
2022/10/04 06:59:32;;;;;;;24.27;14.65;;;11.30;99.90;;;;;;5074689;28;20131;-58
2022/10/04 07:02:04;;;;;;;25.70;14.73;;;11.40;99.90;;;;;;5077174;28;20591;-57
2022/10/04 07:04:42;;;;;;;24.20;14.55;;;11.60;99.90;;;;;;5076787;28;20074;-58
2022/10/04 07:10:17;;;;;;;23.15;13.80;;;11.60;99.90;;;;;;5078486;28;20052;-56
2022/10/04 07:12:49;;;;;;;22.15;13.80;;;11.70;99.90;;;;;;5076581;28;20052;-57
2022/10/04 07:15:16;;;;;;;;;;;11.80;99.90;;;;;;5078219;28;20056;-57
2022/10/04 07:17:44;;;;;;;20.88;14.40;;;11.70;99.90;;;;;;5078069;28;20089;-57
2022/10/04 07:20:32;;;;;;;22.58;13.43;;;11.70;99.90;;;;;;5078769;28;20044;-58
2022/10/04 07:23:05;;;;;;;21.10;13.32;;;11.70;99.90;;;;;;5078759;28;20044;-57
2022/10/04 07:25:42;;;;;;;18.38;13.65;;;11.80;99.90;;;;;;5078050;28;20838;-58
2022/10/04 07:31:00;;;;;;;25.05;14.48;;;12.00;99.90;;;;;;5078408;28;20094;-58
2022/10/04 07:33:33;;;;;;;21.92;13.40;;;12.10;99.90;;;;;;5078592;28;20045;-57
2022/10/04 07:36:14;;;;;;;22.08;15.27;;;12.20;99.90;;;;;;5079006;28;20446;-57
2022/10/04 07:39:09;;;;;;;20.73;14.02;;;12.40;99.90;;;;;;5077711;28;20068;-58
2022/10/04 07:41:45;;;;;;;24.75;14.65;;;12.40;99.90;;;;;;5058027;28;20128;-58
2022/10/04 07:44:34;;;;;;;22.70;13.60;;;12.40;99.90;;;;;;5058188;28;20055;-57
2022/10/04 07:47:18;;;;;;;20.73;13.57;;;12.40;99.90;;;;;;5066938;28;20040;-58
2022/10/04 07:49:44;;;;;;;22.73;13.95;;;12.40;99.90;;;;;;5068838;28;20057;-58
2022/10/04 07:52:37;;;;;;;24.10;14.32;;;12.40;99.90;;;;;;5076685;28;20059;-58
2022/10/04 07:55:22;;;;;;;20.52;13.45;;;12.30;99.90;;;;;;5075553;28;20116;-58
2022/10/04 07:57:57;;;;;;;21.98;14.07;;;12.30;99.90;;;;;;5076201;28;20517;-57
2022/10/04 08:00:57;;;;;;;21.90;13.23;;;12.20;99.90;;;;;;5074157;28;20048;-58
2022/10/04 08:03:28;;;;;;;21.92;14.70;;;12.40;99.90;;;;;;5075376;28;20049;-57
2022/10/04 08:06:10;;;;;;;23.60;13.43;;;12.30;99.90;;;;;;5077697;28;20507;-57
2022/10/04 08:08:54;;;;;;;21.92;13.43;;;12.30;99.90;;;;;;5074914;28;20040;-58
2022/10/04 08:11:38;;;;;;;22.08;13.23;;;12.40;99.90;;;;;;5074897;28;20051;-58
2022/10/04 08:14:21;;;;;;;25.13;14.13;;;12.60;99.90;;;;;;5075701;28;20104;-58
2022/10/04 08:17:25;;;;;;;18.55;13.05;;;12.70;99.90;;;;;;5077185;28;20044;-58
2022/10/04 08:20:16;;;;;;;20.23;13.38;;;12.70;99.90;;;;;;5078210;28;20045;-58
2022/10/04 08:23:00;;;;;;;22.52;13.20;;;12.80;99.90;;;;;;5076534;28;20102;-57
2022/10/04 08:25:48;;;;;;;19.80;13.48;;;13.10;99.90;;;;;;5076885;28;20055;-58
2022/10/04 08:31:36;;;;;;;17.95;12.68;;;13.20;99.90;;;;;;5077286;28;20055;-58
2022/10/04 08:34:21;;;;;;;19.02;12.85;;;13.20;99.90;;;;;;5076470;28;20086;-58
2022/10/04 08:37:24;;;;;;;18.05;12.68;;;13.30;99.90;;;;;;5077602;28;20051;-58
2022/10/04 08:40:36;;;;;;;21.33;13.05;;;13.30;99.90;;;;;;5076208;28;20070;-57
2022/10/04 08:43:23;;;;;;;18.92;12.50;;;13.50;99.90;;;;;;5075450;28;20128;-58
2022/10/04 08:45:55;;;;;;;17.92;11.07;;;13.60;99.90;;;;;;5076661;28;20079;-57
2022/10/04 08:48:29;;;;;;;16.13;10.30;;;13.50;99.90;;;;;;5076532;28;20052;-58
2022/10/04 08:51:32;;;;;;;17.17;9.95;;;13.60;99.90;;;;;;5076286;28;20064;-58
2022/10/04 08:54:16;;;;;;;15.93;9.88;;;13.60;99.90;;;;;;5077023;28;20120;-58
2022/10/04 08:56:57;;;;;;;18.48;11.05;;;13.50;99.90;;;;;;5075963;28;20585;-57
2022/10/04 08:59:47;;;;;;;15.82;10.00;;;13.60;99.90;;;;;;5069033;28;20444;-58
2022/10/04 09:02:22;;;;;;;16.15;9.77;;;13.70;99.90;;;;;;5055459;28;20064;-58
2022/10/04 09:04:47;;;;;;;14.57;10.32;;;13.70;99.90;;;;;;5055647;28;20567;-58
2022/10/04 09:07:34;;;;;;;15.30;9.65;;;13.80;99.90;;;;;;5055604;28;20045;-58
2022/10/04 09:10:33;;;;;;;16.17;10.40;;;13.70;99.90;;;;;;5061229;28;20048;-57
2022/10/04 09:13:12;;;;;;;17.70;11.95;;;13.80;99.90;;;;;;5074549;28;20036;-58
2022/10/04 09:15:59;;;;;;;20.85;13.77;;;13.90;99.90;;;;;;5075840;28;20063;-59
2022/10/04 09:18:44;;;;;;;19.20;12.90;;;13.90;99.90;;;;;;5078870;28;20512;-58
2022/10/04 09:21:14;;;;;;;19.13;13.52;;;14.00;99.90;;;;;;5068767;28;20058;-59
2022/10/04 09:23:40;;;;;;;19.90;13.18;;;14.10;99.90;;;;;;5070457;28;20074;-59
2022/10/04 09:26:35;;;;;;;21.67;13.65;;;14.10;99.90;;;;;;5066909;28;20447;-58
2022/10/04 09:29:34;;;;;;;18.17;12.45;;;14.20;99.90;;;;;;5073280;28;20049;-58
2022/10/04 09:32:18;;;;;;;16.52;10.65;;;14.10;99.90;;;;;;5080223;28;20044;-58
2022/10/04 09:35:17;;;;;;;15.55;10.50;;;14.20;99.90;;;;;;5079238;28;20056;-58
2022/10/04 09:37:46;;;;;;;17.50;9.30;;;14.20;99.90;;;;;;5079740;28;20085;-58
2022/10/04 09:40:53;;;;;;;15.27;9.20;;;14.30;99.90;;;;;;5078980;28;20128;-58
2022/10/04 09:43:49;;;;;;;15.27;8.60;;;14.30;99.90;;;;;;5079058;28;20051;-58
2022/10/04 09:46:15;;;;;;;18.15;9.27;;;14.40;99.90;;;;;;5079762;28;20043;-58
2022/10/04 09:48:53;;;;;;;15.63;8.60;;;14.40;99.90;;;;;;5079809;28;20041;-58
2022/10/04 09:52:05;;;;;;;14.48;8.50;;;14.30;99.90;;;;;;5079106;28;20055;-57
2022/10/04 09:54:45;;;;;;;12.73;7.10;;;14.40;99.90;;;;;;5037431;28;20049;-58
2022/10/04 09:57:53;;;;;;;13.63;7.40;;;14.40;99.90;;;;;;5036907;28;20053;-57
2022/10/04 10:00:27;;;;;;;15.45;8.15;;;14.50;99.90;;;;;;5049021;28;20390;-58
2022/10/04 10:03:11;;;;;;;16.10;8.32;;;14.50;99.90;;;;;;5059803;28;20061;-59
2022/10/04 10:05:57;;;;;;;16.98;8.13;;;14.50;99.90;;;;;;5059292;28;20151;-57
2022/10/04 10:08:59;;;;;;;15.60;9.77;;;14.70;99.90;;;;;;5055934;28;20052;-58
2022/10/04 10:14:59;;;;;;;16.13;9.32;;;14.80;99.90;;;;;;5058720;28;20516;-57
2022/10/04 10:17:47;;;;;;;15.05;9.65;;;14.90;99.90;;;;;;5058371;28;20045;-58
2022/10/04 10:20:38;;;;;;;15.95;9.10;;;15.00;99.90;;;;;;5059328;28;20049;-58
2022/10/04 10:23:35;;;;;;;18.50;10.50;;;15.00;99.90;;;;;;5059125;28;20045;-58
2022/10/04 10:26:23;;;;;;;18.75;10.80;;;15.00;99.90;;;;;;5058509;28;20068;-58
2022/10/04 10:29:04;;;;;;;14.25;9.00;;;15.10;99.90;;;;;;5059154;28;20076;-58
2022/10/04 10:31:58;;;;;;;13.25;8.45;;;15.20;99.90;;;;;;5057573;28;20063;-57
2022/10/04 10:35:02;;;;;;;16.15;8.73;;;15.30;99.90;;;;;;5057793;28;20535;-58
2022/10/04 10:37:39;;;;;;;15.52;9.30;;;15.30;99.90;;;;;;5058286;28;20040;-58
2022/10/04 10:40:20;;;;;;;16.35;9.57;;;15.40;99.90;;;;;;5066500;28;20094;-57
2022/10/04 10:43:17;;;;;;;17.27;9.27;;;15.30;99.90;;;;;;5078356;28;20488;-58
2022/10/04 10:46:22;;;;;;;16.65;9.88;;;15.40;99.90;;;;;;5078852;28;20048;-58
2022/10/04 10:49:20;;;;;;;17.40;9.95;;;15.30;99.90;;;;;;5079438;28;20105;-57
2022/10/04 10:52:14;;;;;;;14.95;8.63;;;15.40;99.90;;;;;;5078629;28;20060;-57
2022/10/04 10:55:06;;;;;;;17.77;9.52;;;15.40;99.90;;;;;;5078111;28;20040;-58
2022/10/04 10:58:16;;;;;;;17.05;9.35;;;15.30;99.90;;;;;;5079391;28;20051;-58
2022/10/04 11:00:59;;;;;;;14.00;9.48;;;15.30;99.90;;;;;;5048707;28;20131;-58
2022/10/04 11:03:42;;;;;;;;;;;15.50;99.90;;;;;;5059293;28;20045;-58
2022/10/04 11:06:34;;;;;;;14.02;8.38;;;15.50;99.90;;;;;;5059131;28;19924;-58
2022/10/04 11:09:12;;;;;;;13.75;8.45;;;15.70;99.90;;;;;;5057117;28;20093;-57
2022/10/04 11:12:28;;;;;;;15.13;9.32;;;15.80;99.90;;;;;;5057880;28;20053;-58
2022/10/04 11:15:31;;;;;;;16.63;8.60;;;15.80;99.90;;;;;;5043750;28;20064;-58
2022/10/04 11:18:24;;;;;;;12.98;8.38;;;15.90;99.90;;;;;;5056576;28;20112;-57
2022/10/04 11:21:11;;;;;;;16.60;9.30;;;15.90;99.90;;;;;;5058807;28;20045;-58
2022/10/04 11:24:03;;;;;;;13.85;8.40;;;16.00;99.90;;;;;;5063013;28;20527;-58
2022/10/04 11:27:00;;;;;;;14.60;8.27;;;16.20;99.90;;;;;;5062383;28;20045;-58
2022/10/04 11:29:44;;;;;;;16.40;8.95;;;16.20;99.90;;;;;;5060723;28;20425;-58
2022/10/04 11:32:38;;;;;;;16.80;9.77;;;16.20;99.90;;;;;;5062739;28;20051;-58
2022/10/04 11:35:16;;;;;;;13.68;8.68;;;16.40;99.90;;;;;;5060978;28;20053;-57
2022/10/04 11:37:56;;;;;;;14.63;8.60;;;16.20;99.90;;;;;;5061611;28;20532;-58
2022/10/04 11:40:33;;;;;;;12.50;8.45;;;16.10;99.90;;;;;;5072675;28;20048;-60
2022/10/04 11:43:23;;;;;;;14.57;8.82;;;16.20;99.90;;;;;;5081506;28;20044;-58
2022/10/04 11:46:03;;;;;;;14.88;7.72;;;16.20;99.90;;;;;;5082261;28;20044;-58
2022/10/04 11:48:53;;;;;;;13.45;7.35;;;16.30;99.90;;;;;;5082101;28;20116;-58
2022/10/04 11:51:52;;;;;;;12.25;6.85;;;16.40;99.90;;;;;;5081277;28;20058;-57
2022/10/04 11:54:37;;;;;;;11.25;6.75;;;16.50;99.90;;;;;;5081678;28;20040;-58
2022/10/04 11:57:30;;;;;;;13.82;7.60;;;16.50;99.90;;;;;;5080868;28;20513;-58
2022/10/04 12:00:19;;;;;;;11.20;6.70;;;16.50;99.90;;;;;;5067952;28;20067;-58
2022/10/04 12:03:29;;;;;;;14.88;7.50;;;16.50;99.90;;;;;;5061788;28;20064;-58
2022/10/04 12:06:14;;;;;;;11.65;7.25;;;16.70;99.90;;;;;;5061929;28;20120;-57
2022/10/04 12:09:04;;;;;;;11.07;6.85;;;16.60;99.90;;;;;;5061305;28;20060;-58
2022/10/04 12:15:13;;;;;;;14.82;7.65;;;16.80;99.90;;;;;;5062018;28;20079;-58
2022/10/04 12:18:13;;;;;;;13.23;7.85;;;16.80;99.90;;;;;;5070126;28;20044;-58
2022/10/04 12:21:19;;;;;;;15.82;7.80;;;16.80;99.90;;;;;;5078310;28;20055;-57
2022/10/04 12:24:22;;;;;;;12.80;6.72;;;16.80;99.90;;;;;;5060754;28;20068;-58
2022/10/04 12:27:01;;;;;;;12.00;7.55;;;16.90;99.90;;;;;;5072327;28;20098;-61
2022/10/04 12:29:45;;;;;;;14.70;7.90;;;16.80;99.90;;;;;;5079506;28;20032;-58
2022/10/04 12:32:22;;;;;;;11.65;7.90;;;16.90;99.90;;;;;;5080295;28;20040;-57
2022/10/04 12:35:26;;;;;;;15.10;7.45;;;16.80;99.90;;;;;;5080145;28;20087;-57
2022/10/04 12:38:27;;;;;;;12.15;7.18;;;16.80;99.90;;;;;;5073402;28;20571;-58
2022/10/04 12:41:18;;;;;;;13.40;7.15;;;16.90;99.90;;;;;;5075744;28;20040;-58
2022/10/04 12:44:13;;;;;;;12.85;7.25;;;16.70;99.90;;;;;;5080212;28;20051;-58
2022/10/04 12:46:53;;;;;;;13.52;7.30;;;16.70;99.90;;;;;;5080624;28;20104;-58
2022/10/04 12:49:31;;;;;;;15.25;8.02;;;16.70;99.90;;;;;;5080980;28;20084;-58
2022/10/04 12:52:04;;;;;;;12.45;8.20;;;16.70;99.90;;;;;;5080133;28;20037;-58
2022/10/04 12:54:54;;;;;;;14.38;7.97;;;16.70;99.90;;;;;;5080885;28;20044;-59
2022/10/04 12:57:25;;;;;;;12.77;7.60;;;16.70;99.90;;;;;;5081030;28;20052;-58
2022/10/04 13:00:04;;;;;;;12.13;7.47;;;16.60;99.90;;;;;;5066762;28;20049;-57
2022/10/04 13:03:03;;;;;;;15.60;7.22;;;16.60;99.90;;;;;;5060259;28;20056;-58
2022/10/04 13:05:53;;;;;;;13.38;7.68;;;16.60;99.90;;;;;;5059504;28;20052;-58
2022/10/04 13:08:18;;;;;;;14.07;6.80;;;16.60;99.90;;;;;;5059440;28;20052;-58
2022/10/04 13:11:16;;;;;;;10.15;5.78;;;16.60;99.90;;;;;;5060180;28;20041;-58
2022/10/04 13:14:06;;;;;;;10.15;5.88;;;16.70;99.90;;;;;;5039939;28;20467;-58
2022/10/04 13:16:50;;;;;;;9.85;5.72;;;16.70;99.90;;;;;;5059216;28;20159;-58
2022/10/04 13:19:23;;;;;;;11.02;5.75;;;16.70;99.90;;;;;;5059388;28;20588;-58
2022/10/04 13:22:09;;;;;;;10.18;5.93;;;16.70;99.90;;;;;;5059007;28;20048;-58
2022/10/04 13:25:00;;;;;;;11.45;6.10;;;16.70;99.90;;;;;;5059453;28;20041;-58
2022/10/04 13:27:50;;;;;;;12.55;5.97;;;16.70;99.90;;;;;;5059661;28;20041;-58
2022/10/04 13:30:22;;;;;;;15.77;6.72;;;16.60;99.90;;;;;;5058660;28;20045;-58
2022/10/04 13:33:06;;;;;;;;;;;16.70;99.90;;;;;;5060201;28;20073;-59
2022/10/04 13:35:56;;;;;;;10.75;6.07;;;16.60;99.90;;;;;;5060165;28;19932;-57
2022/10/04 13:38:39;;;;;;;11.35;6.53;;;16.50;99.90;;;;;;5059306;28;20045;-58
2022/10/04 13:41:16;;;;;;;;;;;16.40;99.90;;;;;;5076785;28;20036;-58
2022/10/04 13:43:56;;;;;;;13.75;6.68;;;16.30;99.90;;;;;;5078024;28;20442;-58
2022/10/04 13:46:28;;;;;;;10.93;5.97;;;16.30;99.90;;;;;;5079361;28;20051;-58
2022/10/04 13:49:09;;;;;;;10.23;5.80;;;16.40;99.90;;;;;;5080004;28;20048;-57
2022/10/04 13:58:06;;;;;;;10.25;5.90;;;16.60;99.90;;;;;;5079141;28;20102;-58
2022/10/04 14:00:59;;;;;;;13.32;6.15;;;16.50;99.90;;;;;;5061838;28;20544;-58
2022/10/04 14:03:46;;;;;;;9.70;5.32;;;16.60;99.90;;;;;;5058947;28;20523;-58
2022/10/04 14:06:30;;;;;;;9.40;4.63;;;16.50;99.90;;;;;;5058421;28;20091;-57